sensor_id;sensor_type;location;lat;lon;timestamp;P1;durP1;ratioP1;P2;durP2;ratioP2
33268;SDS011;19640;50.944;5.260;2024-02-16T00:01:20;1.80;;;1.30;;
33268;SDS011;19640;50.944;5.260;2024-02-16T00:04:04;2.33;;;1.20;;
33268;SDS011;19640;50.944;5.260;2024-02-16T00:06:30;2.72;;;1.45;;
33268;SDS011;19640;50.944;5.260;2024-02-16T00:08:56;1.65;;;1.20;;
33268;SDS011;19640;50.944;5.260;2024-02-16T00:11:21;2.95;;;1.30;;
33268;SDS011;19640;50.944;5.260;2024-02-16T00:13:48;1.75;;;1.10;;
33268;SDS011;19640;50.944;5.260;2024-02-16T00:16:14;3.65;;;1.45;;
33268;SDS011;19640;50.944;5.260;2024-02-16T00:18:39;3.25;;;1.25;;
33268;SDS011;19640;50.944;5.260;2024-02-16T00:21:05;2.00;;;1.23;;
33268;SDS011;19640;50.944;5.260;2024-02-16T00:23:31;2.78;;;1.30;;
33268;SDS011;19640;50.944;5.260;2024-02-16T00:25:58;2.05;;;1.38;;
33268;SDS011;19640;50.944;5.260;2024-02-16T00:28:25;2.20;;;1.40;;
33268;SDS011;19640;50.944;5.260;2024-02-16T00:31:09;4.93;;;1.50;;
33268;SDS011;19640;50.944;5.260;2024-02-16T00:33:35;5.85;;;1.20;;
33268;SDS011;19640;50.944;5.260;2024-02-16T00:36:01;3.03;;;1.38;;
33268;SDS011;19640;50.944;5.260;2024-02-16T00:38:26;2.03;;;1.20;;
33268;SDS011;19640;50.944;5.260;2024-02-16T00:40:52;4.03;;;1.30;;
33268;SDS011;19640;50.944;5.260;2024-02-16T00:43:18;3.10;;;1.58;;
33268;SDS011;19640;50.944;5.260;2024-02-16T00:45:43;3.92;;;1.60;;
33268;SDS011;19640;50.944;5.260;2024-02-16T00:48:10;2.10;;;1.30;;
33268;SDS011;19640;50.944;5.260;2024-02-16T00:50:36;1.80;;;1.13;;
33268;SDS011;19640;50.944;5.260;2024-02-16T00:53:02;3.33;;;1.20;;
33268;SDS011;19640;50.944;5.260;2024-02-16T00:55:29;2.22;;;1.30;;
33268;SDS011;19640;50.944;5.260;2024-02-16T00:57:56;2.38;;;1.33;;
33268;SDS011;19640;50.944;5.260;2024-02-16T01:00:21;2.90;;;1.58;;
33268;SDS011;19640;50.944;5.260;2024-02-16T01:02:49;2.53;;;1.42;;
33268;SDS011;19640;50.944;5.260;2024-02-16T01:05:14;1.85;;;1.30;;
33268;SDS011;19640;50.944;5.260;2024-02-16T01:07:43;1.85;;;1.50;;
33268;SDS011;19640;50.944;5.260;2024-02-16T01:10:09;1.67;;;1.40;;
33268;SDS011;19640;50.944;5.260;2024-02-16T01:12:35;3.22;;;1.40;;
33268;SDS011;19640;50.944;5.260;2024-02-16T01:15:01;5.45;;;1.55;;
33268;SDS011;19640;50.944;5.260;2024-02-16T01:20:12;1.60;;;1.20;;
33268;SDS011;19640;50.944;5.260;2024-02-16T01:22:38;2.33;;;1.73;;
33268;SDS011;19640;50.944;5.260;2024-02-16T01:25:04;1.83;;;1.30;;
33268;SDS011;19640;50.944;5.260;2024-02-16T01:27:30;4.30;;;1.45;;
33268;SDS011;19640;50.944;5.260;2024-02-16T01:29:57;4.15;;;1.42;;
33268;SDS011;19640;50.944;5.260;2024-02-16T01:32:23;2.45;;;1.67;;
33268;SDS011;19640;50.944;5.260;2024-02-16T01:34:48;4.53;;;1.38;;
33268;SDS011;19640;50.944;5.260;2024-02-16T01:37:15;4.22;;;1.92;;
33268;SDS011;19640;50.944;5.260;2024-02-16T01:39:40;2.70;;;1.30;;
33268;SDS011;19640;50.944;5.260;2024-02-16T01:42:07;3.50;;;1.73;;
33268;SDS011;19640;50.944;5.260;2024-02-16T01:44:33;2.38;;;1.35;;
33268;SDS011;19640;50.944;5.260;2024-02-16T01:46:58;2.28;;;1.50;;
33268;SDS011;19640;50.944;5.260;2024-02-16T01:49:24;2.63;;;1.60;;
33268;SDS011;19640;50.944;5.260;2024-02-16T01:51:49;4.93;;;2.30;;
33268;SDS011;19640;50.944;5.260;2024-02-16T01:54:15;2.30;;;1.55;;
33268;SDS011;19640;50.944;5.260;2024-02-16T01:56:42;3.00;;;1.80;;
33268;SDS011;19640;50.944;5.260;2024-02-16T01:59:09;2.67;;;1.60;;
33268;SDS011;19640;50.944;5.260;2024-02-16T02:01:35;2.17;;;1.42;;
33268;SDS011;19640;50.944;5.260;2024-02-16T02:04:01;1.73;;;1.10;;
33268;SDS011;19640;50.944;5.260;2024-02-16T02:06:27;2.78;;;1.42;;
33268;SDS011;19640;50.944;5.260;2024-02-16T02:08:53;3.13;;;1.38;;
33268;SDS011;19640;50.944;5.260;2024-02-16T02:11:19;2.85;;;1.67;;
33268;SDS011;19640;50.944;5.260;2024-02-16T02:13:44;4.90;;;1.33;;
33268;SDS011;19640;50.944;5.260;2024-02-16T02:16:10;2.60;;;1.30;;
33268;SDS011;19640;50.944;5.260;2024-02-16T02:18:36;2.90;;;1.60;;
33268;SDS011;19640;50.944;5.260;2024-02-16T02:21:02;2.45;;;1.60;;
33268;SDS011;19640;50.944;5.260;2024-02-16T02:23:27;3.97;;;1.65;;
33268;SDS011;19640;50.944;5.260;2024-02-16T02:25:53;2.13;;;1.55;;
33268;SDS011;19640;50.944;5.260;2024-02-16T02:28:19;2.50;;;1.45;;
33268;SDS011;19640;50.944;5.260;2024-02-16T02:30:45;3.83;;;1.65;;
33268;SDS011;19640;50.944;5.260;2024-02-16T02:33:11;4.35;;;1.45;;
33268;SDS011;19640;50.944;5.260;2024-02-16T02:35:38;2.63;;;1.60;;
33268;SDS011;19640;50.944;5.260;2024-02-16T02:38:04;2.33;;;1.55;;
33268;SDS011;19640;50.944;5.260;2024-02-16T02:40:30;1.58;;;1.38;;
33268;SDS011;19640;50.944;5.260;2024-02-16T02:43:15;2.78;;;1.60;;
33268;SDS011;19640;50.944;5.260;2024-02-16T02:45:41;3.10;;;1.88;;
33268;SDS011;19640;50.944;5.260;2024-02-16T02:48:06;2.13;;;1.35;;
33268;SDS011;19640;50.944;5.260;2024-02-16T02:50:32;3.40;;;1.50;;
33268;SDS011;19640;50.944;5.260;2024-02-16T02:52:58;5.80;;;1.70;;
33268;SDS011;19640;50.944;5.260;2024-02-16T02:55:23;2.90;;;1.40;;
33268;SDS011;19640;50.944;5.260;2024-02-16T02:58:07;2.35;;;1.67;;
33268;SDS011;19640;50.944;5.260;2024-02-16T03:00:33;4.00;;;1.75;;
33268;SDS011;19640;50.944;5.260;2024-02-16T03:03:00;2.05;;;1.73;;
33268;SDS011;19640;50.944;5.260;2024-02-16T03:05:26;3.58;;;1.98;;
33268;SDS011;19640;50.944;5.260;2024-02-16T03:07:52;5.30;;;1.45;;
33268;SDS011;19640;50.944;5.260;2024-02-16T03:10:18;4.38;;;1.65;;
33268;SDS011;19640;50.944;5.260;2024-02-16T03:12:47;3.30;;;1.55;;
33268;SDS011;19640;50.944;5.260;2024-02-16T03:15:14;3.17;;;1.50;;
33268;SDS011;19640;50.944;5.260;2024-02-16T03:17:41;1.98;;;1.50;;
33268;SDS011;19640;50.944;5.260;2024-02-16T03:20:07;2.60;;;1.30;;
33268;SDS011;19640;50.944;5.260;2024-02-16T03:22:33;4.75;;;1.40;;
33268;SDS011;19640;50.944;5.260;2024-02-16T03:24:58;3.50;;;1.50;;
33268;SDS011;19640;50.944;5.260;2024-02-16T03:27:24;3.90;;;1.60;;
33268;SDS011;19640;50.944;5.260;2024-02-16T03:29:50;4.05;;;1.70;;
33268;SDS011;19640;50.944;5.260;2024-02-16T03:32:15;4.45;;;1.50;;
33268;SDS011;19640;50.944;5.260;2024-02-16T03:34:42;3.33;;;1.63;;
33268;SDS011;19640;50.944;5.260;2024-02-16T03:37:07;2.50;;;1.77;;
33268;SDS011;19640;50.944;5.260;2024-02-16T03:39:34;3.25;;;1.50;;
33268;SDS011;19640;50.944;5.260;2024-02-16T03:42:00;4.18;;;1.40;;
33268;SDS011;19640;50.944;5.260;2024-02-16T03:44:25;3.78;;;1.80;;
33268;SDS011;19640;50.944;5.260;2024-02-16T03:46:51;3.25;;;1.95;;
33268;SDS011;19640;50.944;5.260;2024-02-16T03:49:17;4.30;;;1.77;;
33268;SDS011;19640;50.944;5.260;2024-02-16T03:51:42;4.10;;;2.00;;
33268;SDS011;19640;50.944;5.260;2024-02-16T03:54:08;2.47;;;1.50;;
33268;SDS011;19640;50.944;5.260;2024-02-16T03:56:33;8.35;;;1.50;;
33268;SDS011;19640;50.944;5.260;2024-02-16T03:58:59;3.17;;;2.10;;
33268;SDS011;19640;50.944;5.260;2024-02-16T04:01:25;2.05;;;1.38;;
33268;SDS011;19640;50.944;5.260;2024-02-16T04:03:50;2.95;;;1.35;;
33268;SDS011;19640;50.944;5.260;2024-02-16T04:06:17;5.03;;;1.95;;
33268;SDS011;19640;50.944;5.260;2024-02-16T04:09:02;2.95;;;1.65;;
33268;SDS011;19640;50.944;5.260;2024-02-16T04:11:27;3.33;;;1.67;;
33268;SDS011;19640;50.944;5.260;2024-02-16T04:16:42;3.17;;;1.67;;
33268;SDS011;19640;50.944;5.260;2024-02-16T04:21:53;3.08;;;1.70;;
33268;SDS011;19640;50.944;5.260;2024-02-16T04:24:19;3.75;;;1.70;;
33268;SDS011;19640;50.944;5.260;2024-02-16T04:26:45;3.97;;;1.83;;
33268;SDS011;19640;50.944;5.260;2024-02-16T04:29:10;3.92;;;1.60;;
33268;SDS011;19640;50.944;5.260;2024-02-16T04:31:55;2.10;;;1.52;;
33268;SDS011;19640;50.944;5.260;2024-02-16T04:37:05;5.90;;;1.65;;
33268;SDS011;19640;50.944;5.260;2024-02-16T04:39:30;1.83;;;1.45;;
33268;SDS011;19640;50.944;5.260;2024-02-16T04:41:56;2.97;;;1.60;;
33268;SDS011;19640;50.944;5.260;2024-02-16T04:44:22;5.60;;;1.65;;
33268;SDS011;19640;50.944;5.260;2024-02-16T04:46:47;2.55;;;1.70;;
33268;SDS011;19640;50.944;5.260;2024-02-16T04:49:17;2.50;;;1.63;;
33268;SDS011;19640;50.944;5.260;2024-02-16T04:51:43;4.60;;;1.70;;
33268;SDS011;19640;50.944;5.260;2024-02-16T04:54:08;6.40;;;2.60;;
33268;SDS011;19640;50.944;5.260;2024-02-16T04:56:34;2.88;;;1.88;;
33268;SDS011;19640;50.944;5.260;2024-02-16T04:59:00;4.32;;;1.48;;
33268;SDS011;19640;50.944;5.260;2024-02-16T05:01:26;5.88;;;2.00;;
33268;SDS011;19640;50.944;5.260;2024-02-16T05:03:53;3.83;;;1.63;;
33268;SDS011;19640;50.944;5.260;2024-02-16T05:06:19;6.35;;;1.70;;
33268;SDS011;19640;50.944;5.260;2024-02-16T05:08:45;3.35;;;1.58;;
33268;SDS011;19640;50.944;5.260;2024-02-16T05:11:10;4.97;;;1.70;;
33268;SDS011;19640;50.944;5.260;2024-02-16T05:13:36;3.20;;;1.85;;
33268;SDS011;19640;50.944;5.260;2024-02-16T05:16:02;4.30;;;1.70;;
33268;SDS011;19640;50.944;5.260;2024-02-16T05:18:32;5.78;;;1.70;;
33268;SDS011;19640;50.944;5.260;2024-02-16T05:20:58;6.20;;;1.70;;
33268;SDS011;19640;50.944;5.260;2024-02-16T05:23:24;2.30;;;2.08;;
33268;SDS011;19640;50.944;5.260;2024-02-16T05:25:50;8.50;;;1.98;;
33268;SDS011;19640;50.944;5.260;2024-02-16T05:28:15;4.35;;;1.80;;
33268;SDS011;19640;50.944;5.260;2024-02-16T05:30:42;4.95;;;1.40;;
33268;SDS011;19640;50.944;5.260;2024-02-16T05:33:07;5.50;;;2.20;;
33268;SDS011;19640;50.944;5.260;2024-02-16T05:35:33;4.63;;;1.77;;
33268;SDS011;19640;50.944;5.260;2024-02-16T05:37:59;2.63;;;1.60;;
33268;SDS011;19640;50.944;5.260;2024-02-16T05:40:32;2.72;;;1.83;;
33268;SDS011;19640;50.944;5.260;2024-02-16T05:43:09;4.57;;;2.33;;
33268;SDS011;19640;50.944;5.260;2024-02-16T05:45:34;5.05;;;1.65;;
33268;SDS011;19640;50.944;5.260;2024-02-16T05:48:00;3.95;;;1.90;;
33268;SDS011;19640;50.944;5.260;2024-02-16T05:50:26;2.70;;;1.60;;
33268;SDS011;19640;50.944;5.260;2024-02-16T05:53:11;2.22;;;1.58;;
33268;SDS011;19640;50.944;5.260;2024-02-16T05:55:36;3.40;;;1.73;;
33268;SDS011;19640;50.944;5.260;2024-02-16T06:00:48;3.78;;;1.80;;
33268;SDS011;19640;50.944;5.260;2024-02-16T06:05:58;5.18;;;1.70;;
33268;SDS011;19640;50.944;5.260;2024-02-16T06:08:42;5.15;;;2.05;;
33268;SDS011;19640;50.944;5.260;2024-02-16T06:11:08;3.58;;;2.00;;
33268;SDS011;19640;50.944;5.260;2024-02-16T06:16:18;4.65;;;1.70;;
33268;SDS011;19640;50.944;5.260;2024-02-16T06:18:44;8.82;;;1.80;;
33268;SDS011;19640;50.944;5.260;2024-02-16T06:21:10;2.08;;;1.52;;
33268;SDS011;19640;50.944;5.260;2024-02-16T06:26:20;5.43;;;2.00;;
33268;SDS011;19640;50.944;5.260;2024-02-16T06:28:45;3.47;;;2.15;;
33268;SDS011;19640;50.944;5.260;2024-02-16T06:31:12;3.28;;;1.85;;
33268;SDS011;19640;50.944;5.260;2024-02-16T06:33:39;3.30;;;2.22;;
33268;SDS011;19640;50.944;5.260;2024-02-16T06:36:24;5.63;;;1.80;;
33268;SDS011;19640;50.944;5.260;2024-02-16T06:38:49;3.33;;;1.80;;
33268;SDS011;19640;50.944;5.260;2024-02-16T06:41:16;2.92;;;1.77;;
33268;SDS011;19640;50.944;5.260;2024-02-16T06:43:42;4.00;;;2.20;;
33268;SDS011;19640;50.944;5.260;2024-02-16T06:46:08;4.93;;;1.80;;
33268;SDS011;19640;50.944;5.260;2024-02-16T06:48:34;2.45;;;1.70;;
33268;SDS011;19640;50.944;5.260;2024-02-16T06:50:59;7.35;;;2.08;;
33268;SDS011;19640;50.944;5.260;2024-02-16T06:53:25;4.82;;;1.90;;
33268;SDS011;19640;50.944;5.260;2024-02-16T06:55:51;3.80;;;1.92;;
33268;SDS011;19640;50.944;5.260;2024-02-16T06:58:16;2.70;;;1.80;;
33268;SDS011;19640;50.944;5.260;2024-02-16T07:00:42;5.20;;;2.08;;
33268;SDS011;19640;50.944;5.260;2024-02-16T07:03:08;3.70;;;2.50;;
33268;SDS011;19640;50.944;5.260;2024-02-16T07:05:34;3.30;;;1.90;;
33268;SDS011;19640;50.944;5.260;2024-02-16T07:08:00;5.00;;;1.80;;
33268;SDS011;19640;50.944;5.260;2024-02-16T07:10:26;4.07;;;2.00;;
33268;SDS011;19640;50.944;5.260;2024-02-16T07:12:51;3.55;;;1.80;;
33268;SDS011;19640;50.944;5.260;2024-02-16T07:15:17;3.65;;;2.00;;
33268;SDS011;19640;50.944;5.260;2024-02-16T07:17:43;4.80;;;2.08;;
33268;SDS011;19640;50.944;5.260;2024-02-16T07:22:53;5.25;;;1.85;;
33268;SDS011;19640;50.944;5.260;2024-02-16T07:25:38;3.67;;;1.73;;
33268;SDS011;19640;50.944;5.260;2024-02-16T07:28:03;3.00;;;1.95;;
33268;SDS011;19640;50.944;5.260;2024-02-16T07:30:30;5.07;;;2.08;;
33268;SDS011;19640;50.944;5.260;2024-02-16T07:32:55;2.92;;;1.60;;
33268;SDS011;19640;50.944;5.260;2024-02-16T07:35:40;5.53;;;1.98;;
33268;SDS011;19640;50.944;5.260;2024-02-16T07:38:05;6.85;;;1.80;;
33268;SDS011;19640;50.944;5.260;2024-02-16T07:40:32;4.53;;;1.95;;
33268;SDS011;19640;50.944;5.260;2024-02-16T07:42:57;4.15;;;2.10;;
33268;SDS011;19640;50.944;5.260;2024-02-16T07:45:23;2.78;;;1.80;;
33268;SDS011;19640;50.944;5.260;2024-02-16T07:48:07;2.72;;;2.00;;
33268;SDS011;19640;50.944;5.260;2024-02-16T07:50:33;4.50;;;1.88;;
33268;SDS011;19640;50.944;5.260;2024-02-16T07:52:58;4.90;;;2.53;;
33268;SDS011;19640;50.944;5.260;2024-02-16T07:55:24;3.92;;;1.88;;
33268;SDS011;19640;50.944;5.260;2024-02-16T07:57:50;3.55;;;2.13;;
33268;SDS011;19640;50.944;5.260;2024-02-16T08:00:35;6.13;;;2.20;;
33268;SDS011;19640;50.944;5.260;2024-02-16T08:03:00;3.90;;;1.90;;
33268;SDS011;19640;50.944;5.260;2024-02-16T08:05:44;2.83;;;2.10;;
33268;SDS011;19640;50.944;5.260;2024-02-16T08:08:10;4.47;;;1.77;;
33268;SDS011;19640;50.944;5.260;2024-02-16T08:10:36;5.07;;;2.00;;
33268;SDS011;19640;50.944;5.260;2024-02-16T08:15:46;5.03;;;1.90;;
33268;SDS011;19640;50.944;5.260;2024-02-16T08:18:32;3.55;;;1.80;;
33268;SDS011;19640;50.944;5.260;2024-02-16T08:21:17;7.47;;;2.47;;
33268;SDS011;19640;50.944;5.260;2024-02-16T08:23:42;5.20;;;2.40;;
33268;SDS011;19640;50.944;5.260;2024-02-16T08:26:08;5.70;;;2.00;;
33268;SDS011;19640;50.944;5.260;2024-02-16T08:28:33;3.10;;;2.03;;
33268;SDS011;19640;50.944;5.260;2024-02-16T08:30:59;5.00;;;2.28;;
33268;SDS011;19640;50.944;5.260;2024-02-16T08:33:25;6.55;;;2.15;;
33268;SDS011;19640;50.944;5.260;2024-02-16T08:35:50;6.82;;;2.10;;
33268;SDS011;19640;50.944;5.260;2024-02-16T08:38:16;5.10;;;2.20;;
33268;SDS011;19640;50.944;5.260;2024-02-16T08:40:42;5.78;;;2.60;;
33268;SDS011;19640;50.944;5.260;2024-02-16T08:43:07;6.15;;;2.28;;
33268;SDS011;19640;50.944;5.260;2024-02-16T08:45:33;3.72;;;2.22;;
33268;SDS011;19640;50.944;5.260;2024-02-16T08:47:59;6.13;;;2.42;;
33268;SDS011;19640;50.944;5.260;2024-02-16T08:50:27;4.25;;;2.63;;
33268;SDS011;19640;50.944;5.260;2024-02-16T08:52:53;3.67;;;2.40;;
33268;SDS011;19640;50.944;5.260;2024-02-16T08:55:19;4.30;;;1.92;;
33268;SDS011;19640;50.944;5.260;2024-02-16T08:57:45;5.22;;;2.35;;
33268;SDS011;19640;50.944;5.260;2024-02-16T09:00:11;6.40;;;2.50;;
33268;SDS011;19640;50.944;5.260;2024-02-16T09:02:37;6.70;;;2.50;;
33268;SDS011;19640;50.944;5.260;2024-02-16T09:05:03;6.57;;;2.42;;
33268;SDS011;19640;50.944;5.260;2024-02-16T09:07:29;6.30;;;2.28;;
33268;SDS011;19640;50.944;5.260;2024-02-16T09:09:55;6.60;;;2.10;;
33268;SDS011;19640;50.944;5.260;2024-02-16T09:12:21;4.97;;;2.60;;
33268;SDS011;19640;50.944;5.260;2024-02-16T09:14:47;3.55;;;2.38;;
33268;SDS011;19640;50.944;5.260;2024-02-16T09:17:13;7.68;;;3.00;;
33268;SDS011;19640;50.944;5.260;2024-02-16T09:19:39;5.47;;;2.72;;
33268;SDS011;19640;50.944;5.260;2024-02-16T09:22:04;7.70;;;2.90;;
33268;SDS011;19640;50.944;5.260;2024-02-16T09:24:31;4.28;;;2.45;;
33268;SDS011;19640;50.944;5.260;2024-02-16T09:26:57;9.02;;;2.80;;
33268;SDS011;19640;50.944;5.260;2024-02-16T09:29:28;5.43;;;2.80;;
33268;SDS011;19640;50.944;5.260;2024-02-16T09:31:54;5.78;;;2.92;;
33268;SDS011;19640;50.944;5.260;2024-02-16T09:34:19;6.03;;;3.05;;
33268;SDS011;19640;50.944;5.260;2024-02-16T09:36:45;3.78;;;2.72;;
33268;SDS011;19640;50.944;5.260;2024-02-16T09:39:11;4.47;;;2.30;;
33268;SDS011;19640;50.944;5.260;2024-02-16T09:41:36;4.47;;;2.35;;
33268;SDS011;19640;50.944;5.260;2024-02-16T09:44:09;9.05;;;3.22;;
33268;SDS011;19640;50.944;5.260;2024-02-16T09:46:35;5.38;;;2.60;;
33268;SDS011;19640;50.944;5.260;2024-02-16T09:49:01;4.07;;;2.80;;
33268;SDS011;19640;50.944;5.260;2024-02-16T09:51:29;4.90;;;2.60;;
33268;SDS011;19640;50.944;5.260;2024-02-16T09:53:55;5.82;;;3.08;;
33268;SDS011;19640;50.944;5.260;2024-02-16T09:56:20;5.05;;;2.67;;
33268;SDS011;19640;50.944;5.260;2024-02-16T09:58:47;4.93;;;3.00;;
33268;SDS011;19640;50.944;5.260;2024-02-16T10:01:18;3.47;;;2.35;;
33268;SDS011;19640;50.944;5.260;2024-02-16T10:03:45;7.95;;;2.90;;
33268;SDS011;19640;50.944;5.260;2024-02-16T10:06:11;5.22;;;3.17;;
33268;SDS011;19640;50.944;5.260;2024-02-16T10:08:50;7.63;;;3.15;;
33268;SDS011;19640;50.944;5.260;2024-02-16T10:11:17;8.73;;;3.60;;
33268;SDS011;19640;50.944;5.260;2024-02-16T10:13:57;3.85;;;2.97;;
33268;SDS011;19640;50.944;5.260;2024-02-16T10:16:27;4.95;;;2.97;;
33268;SDS011;19640;50.944;5.260;2024-02-16T10:18:54;5.03;;;2.60;;
33268;SDS011;19640;50.944;5.260;2024-02-16T10:21:25;6.25;;;3.22;;
33268;SDS011;19640;50.944;5.260;2024-02-16T10:23:59;4.03;;;3.13;;
33268;SDS011;19640;50.944;5.260;2024-02-16T10:26:29;7.15;;;3.28;;
33268;SDS011;19640;50.944;5.260;2024-02-16T10:28:55;5.60;;;3.85;;
33268;SDS011;19640;50.944;5.260;2024-02-16T10:31:22;6.75;;;3.65;;
33268;SDS011;19640;50.944;5.260;2024-02-16T10:33:56;10.50;;;3.50;;
33268;SDS011;19640;50.944;5.260;2024-02-16T10:36:35;11.13;;;4.57;;
33268;SDS011;19640;50.944;5.260;2024-02-16T10:39:02;8.85;;;3.97;;
33268;SDS011;19640;50.944;5.260;2024-02-16T10:41:34;5.97;;;3.70;;
33268;SDS011;19640;50.944;5.260;2024-02-16T10:44:01;5.78;;;4.10;;
33268;SDS011;19640;50.944;5.260;2024-02-16T10:46:28;4.95;;;4.15;;
33268;SDS011;19640;50.944;5.260;2024-02-16T10:48:54;4.72;;;3.83;;
33268;SDS011;19640;50.944;5.260;2024-02-16T10:51:30;7.40;;;4.10;;
33268;SDS011;19640;50.944;5.260;2024-02-16T10:54:01;6.57;;;3.95;;
33268;SDS011;19640;50.944;5.260;2024-02-16T10:56:37;7.47;;;3.95;;
33268;SDS011;19640;50.944;5.260;2024-02-16T10:59:05;7.47;;;4.25;;
33268;SDS011;19640;50.944;5.260;2024-02-16T11:01:36;6.30;;;4.28;;
33268;SDS011;19640;50.944;5.260;2024-02-16T11:04:06;7.15;;;4.10;;
33268;SDS011;19640;50.944;5.260;2024-02-16T11:06:44;5.53;;;3.88;;
33268;SDS011;19640;50.944;5.260;2024-02-16T11:09:11;7.57;;;4.53;;
33268;SDS011;19640;50.944;5.260;2024-02-16T11:11:37;10.30;;;5.10;;
33268;SDS011;19640;50.944;5.260;2024-02-16T11:14:02;7.65;;;4.47;;
33268;SDS011;19640;50.944;5.260;2024-02-16T11:16:29;9.68;;;5.15;;
33268;SDS011;19640;50.944;5.260;2024-02-16T11:18:54;10.65;;;6.13;;
33268;SDS011;19640;50.944;5.260;2024-02-16T11:21:21;8.85;;;4.75;;
33268;SDS011;19640;50.944;5.260;2024-02-16T11:23:47;9.88;;;5.00;;
33268;SDS011;19640;50.944;5.260;2024-02-16T11:26:13;10.75;;;5.15;;
33268;SDS011;19640;50.944;5.260;2024-02-16T11:28:42;14.52;;;4.97;;
33268;SDS011;19640;50.944;5.260;2024-02-16T11:31:08;14.73;;;5.60;;
33268;SDS011;19640;50.944;5.260;2024-02-16T11:33:34;10.93;;;5.15;;
33268;SDS011;19640;50.944;5.260;2024-02-16T11:36:03;7.85;;;5.03;;
33268;SDS011;19640;50.944;5.260;2024-02-16T11:38:30;7.63;;;4.90;;
33268;SDS011;19640;50.944;5.260;2024-02-16T11:41:03;10.07;;;5.28;;
33268;SDS011;19640;50.944;5.260;2024-02-16T11:43:30;8.00;;;4.97;;
33268;SDS011;19640;50.944;5.260;2024-02-16T11:45:57;9.75;;;5.85;;
33268;SDS011;19640;50.944;5.260;2024-02-16T11:48:24;10.48;;;5.57;;
33268;SDS011;19640;50.944;5.260;2024-02-16T11:51:00;13.82;;;5.65;;
33268;SDS011;19640;50.944;5.260;2024-02-16T11:53:28;14.35;;;6.57;;
33268;SDS011;19640;50.944;5.260;2024-02-16T11:55:57;9.18;;;5.93;;
33268;SDS011;19640;50.944;5.260;2024-02-16T11:58:24;8.32;;;6.03;;
33268;SDS011;19640;50.944;5.260;2024-02-16T12:00:50;10.88;;;5.97;;
33268;SDS011;19640;50.944;5.260;2024-02-16T12:03:23;8.80;;;5.95;;
33268;SDS011;19640;50.944;5.260;2024-02-16T12:05:50;16.90;;;6.38;;
33268;SDS011;19640;50.944;5.260;2024-02-16T12:08:23;10.57;;;6.20;;
33268;SDS011;19640;50.944;5.260;2024-02-16T12:10:49;11.07;;;6.40;;
33268;SDS011;19640;50.944;5.260;2024-02-16T12:13:20;16.13;;;6.88;;
33268;SDS011;19640;50.944;5.260;2024-02-16T12:15:46;12.55;;;6.90;;
33268;SDS011;19640;50.944;5.260;2024-02-16T12:18:20;9.88;;;7.13;;
33268;SDS011;19640;50.944;5.260;2024-02-16T12:20:56;10.70;;;7.07;;
33268;SDS011;19640;50.944;5.260;2024-02-16T12:23:26;12.48;;;6.30;;
33268;SDS011;19640;50.944;5.260;2024-02-16T12:25:51;11.90;;;7.13;;
33268;SDS011;19640;50.944;5.260;2024-02-16T12:28:18;10.88;;;7.20;;
33268;SDS011;19640;50.944;5.260;2024-02-16T12:30:45;14.60;;;7.00;;
33268;SDS011;19640;50.944;5.260;2024-02-16T12:33:13;16.48;;;8.23;;
33268;SDS011;19640;50.944;5.260;2024-02-16T12:35:39;15.90;;;7.47;;
33268;SDS011;19640;50.944;5.260;2024-02-16T12:38:05;10.93;;;7.43;;
33268;SDS011;19640;50.944;5.260;2024-02-16T12:40:31;15.27;;;7.32;;
33268;SDS011;19640;50.944;5.260;2024-02-16T12:42:56;11.10;;;7.40;;
33268;SDS011;19640;50.944;5.260;2024-02-16T12:45:22;13.77;;;6.90;;
33268;SDS011;19640;50.944;5.260;2024-02-16T12:47:49;14.23;;;7.00;;
33268;SDS011;19640;50.944;5.260;2024-02-16T12:50:15;10.30;;;7.70;;
33268;SDS011;19640;50.944;5.260;2024-02-16T12:52:42;14.88;;;8.32;;
33268;SDS011;19640;50.944;5.260;2024-02-16T12:55:08;11.27;;;8.00;;
33268;SDS011;19640;50.944;5.260;2024-02-16T12:57:37;20.00;;;8.55;;
33268;SDS011;19640;50.944;5.260;2024-02-16T13:00:04;15.73;;;8.00;;
33268;SDS011;19640;50.944;5.260;2024-02-16T13:02:30;10.90;;;7.78;;
33268;SDS011;19640;50.944;5.260;2024-02-16T13:04:56;10.73;;;9.15;;
33268;SDS011;19640;50.944;5.260;2024-02-16T13:07:23;15.80;;;8.27;;
33268;SDS011;19640;50.944;5.260;2024-02-16T13:09:50;12.55;;;8.82;;
33268;SDS011;19640;50.944;5.260;2024-02-16T13:12:17;15.77;;;9.30;;
33268;SDS011;19640;50.944;5.260;2024-02-16T13:14:44;11.35;;;8.73;;
33268;SDS011;19640;50.944;5.260;2024-02-16T13:17:10;15.40;;;9.35;;
33268;SDS011;19640;50.944;5.260;2024-02-16T13:19:36;10.88;;;8.52;;
33268;SDS011;19640;50.944;5.260;2024-02-16T13:22:01;16.17;;;8.98;;
33268;SDS011;19640;50.944;5.260;2024-02-16T13:24:27;11.23;;;8.52;;
33268;SDS011;19640;50.944;5.260;2024-02-16T13:26:53;12.15;;;8.38;;
33268;SDS011;19640;50.944;5.260;2024-02-16T13:29:18;13.02;;;8.43;;
33268;SDS011;19640;50.944;5.260;2024-02-16T13:31:44;12.35;;;7.78;;
33268;SDS011;19640;50.944;5.260;2024-02-16T13:34:10;12.52;;;8.18;;
33268;SDS011;19640;50.944;5.260;2024-02-16T13:36:43;11.20;;;7.45;;
33268;SDS011;19640;50.944;5.260;2024-02-16T13:39:12;10.20;;;7.38;;
33268;SDS011;19640;50.944;5.260;2024-02-16T13:41:39;9.90;;;7.85;;
33268;SDS011;19640;50.944;5.260;2024-02-16T13:44:05;12.63;;;7.10;;
33268;SDS011;19640;50.944;5.260;2024-02-16T13:46:31;7.40;;;5.47;;
33268;SDS011;19640;50.944;5.260;2024-02-16T13:48:56;4.60;;;4.20;;
33268;SDS011;19640;50.944;5.260;2024-02-16T13:51:24;4.55;;;4.10;;
33268;SDS011;19640;50.944;5.260;2024-02-16T13:53:49;5.10;;;3.65;;
33268;SDS011;19640;50.944;5.260;2024-02-16T13:56:16;4.93;;;3.58;;
33268;SDS011;19640;50.944;5.260;2024-02-16T13:58:42;4.57;;;4.18;;
33268;SDS011;19640;50.944;5.260;2024-02-16T14:01:07;5.70;;;4.47;;
33268;SDS011;19640;50.944;5.260;2024-02-16T14:03:33;5.43;;;4.57;;
33268;SDS011;19640;50.944;5.260;2024-02-16T14:06:01;5.80;;;4.68;;
33268;SDS011;19640;50.944;5.260;2024-02-16T14:08:27;6.20;;;5.05;;
33268;SDS011;19640;50.944;5.260;2024-02-16T14:10:53;5.35;;;4.85;;
33268;SDS011;19640;50.944;5.260;2024-02-16T14:13:19;5.85;;;5.25;;
33268;SDS011;19640;50.944;5.260;2024-02-16T14:15:46;6.32;;;5.72;;
33268;SDS011;19640;50.944;5.260;2024-02-16T14:18:12;6.30;;;5.72;;
33268;SDS011;19640;50.944;5.260;2024-02-16T14:20:37;7.32;;;6.63;;
33268;SDS011;19640;50.944;5.260;2024-02-16T14:23:03;7.75;;;6.88;;
33268;SDS011;19640;50.944;5.260;2024-02-16T14:25:29;7.25;;;6.55;;
33268;SDS011;19640;50.944;5.260;2024-02-16T14:27:54;7.15;;;6.55;;
33268;SDS011;19640;50.944;5.260;2024-02-16T14:30:20;7.22;;;6.53;;
33268;SDS011;19640;50.944;5.260;2024-02-16T14:32:46;8.00;;;7.13;;
33268;SDS011;19640;50.944;5.260;2024-02-16T14:35:11;7.97;;;6.82;;
33268;SDS011;19640;50.944;5.260;2024-02-16T14:37:37;7.65;;;6.90;;
33268;SDS011;19640;50.944;5.260;2024-02-16T14:40:04;9.20;;;8.02;;
33268;SDS011;19640;50.944;5.260;2024-02-16T14:42:35;8.73;;;6.93;;
33268;SDS011;19640;50.944;5.260;2024-02-16T14:45:02;8.32;;;7.47;;
33268;SDS011;19640;50.944;5.260;2024-02-16T14:47:28;8.68;;;7.80;;
33268;SDS011;19640;50.944;5.260;2024-02-16T14:49:53;8.93;;;8.02;;
33268;SDS011;19640;50.944;5.260;2024-02-16T14:52:19;8.20;;;7.28;;
33268;SDS011;19640;50.944;5.260;2024-02-16T14:54:45;8.63;;;7.82;;
33268;SDS011;19640;50.944;5.260;2024-02-16T14:57:11;9.27;;;7.55;;
33268;SDS011;19640;50.944;5.260;2024-02-16T14:59:36;8.70;;;7.90;;
33268;SDS011;19640;50.944;5.260;2024-02-16T15:02:02;8.50;;;7.65;;
33268;SDS011;19640;50.944;5.260;2024-02-16T15:04:28;8.63;;;7.82;;
33268;SDS011;19640;50.944;5.260;2024-02-16T15:06:55;10.20;;;8.25;;
33268;SDS011;19640;50.944;5.260;2024-02-16T15:09:21;8.82;;;7.90;;
33268;SDS011;19640;50.944;5.260;2024-02-16T15:11:47;10.38;;;7.68;;
33268;SDS011;19640;50.944;5.260;2024-02-16T15:14:13;10.45;;;8.45;;